Time;durP1;ratioP1;P1;durP2;ratioP2;P2;SDS_P1;SDS_P2;PMS_P1;PMS_P2;Temp;Humidity;BMP_temperature;BMP_pressure;BME280_temperature;BME280_humidity;BME280_pressure;Samples;Min_cycle;Max_cycle;Signal;HPM_P1;HPM_P2
2022/10/01 00:00:47;;;;;;;3.87;3.00;;;11.30;99.90;;;;;;5095091;28;20199;-83
2022/10/01 00:03:14;;;;;;;7.23;3.13;;;11.30;99.90;;;;;;5095251;28;20208;-83
2022/10/01 00:05:41;;;;;;;3.23;2.87;;;11.30;1.00;;;;;;5096728;28;20224;-83
2022/10/01 00:08:09;;;;;;;4.37;3.20;;;11.30;99.90;;;;;;5095758;28;20222;-84
2022/10/01 00:10:40;;;;;;;6.07;3.10;;;11.30;99.90;;;;;;5096771;28;20197;-84
2022/10/01 00:13:07;;;;;;;5.40;3.20;;;11.30;1.00;;;;;;5093308;28;20271;-83
2022/10/01 00:15:34;;;;;;;4.40;2.90;;;11.40;1.00;;;;;;5076931;28;20222;-83
2022/10/01 00:18:01;;;;;;;4.73;3.10;;;11.40;1.00;;;;;;5076849;28;20203;-83
2022/10/01 00:20:28;;;;;;;5.03;3.70;;;11.30;1.00;;;;;;5076861;28;20272;-83
2022/10/01 00:22:55;;;;;;;7.17;3.37;;;11.20;1.00;;;;;;5074997;28;20208;-83
2022/10/01 00:25:24;;;;;;;4.00;3.37;;;11.20;1.00;;;;;;5074290;28;20774;-83
2022/10/01 00:27:51;;;;;;;5.03;3.13;;;11.20;1.00;;;;;;5075228;28;20244;-84
2022/10/01 00:30:18;;;;;;;6.67;3.17;;;11.10;99.90;;;;;;5075119;28;20235;-83
2022/10/01 00:32:45;;;;;;;4.53;3.00;;;11.10;1.00;;;;;;5075627;28;20210;-83
2022/10/01 00:35:13;;;;;;;5.67;3.10;;;11.10;99.90;;;;;;5074093;28;20206;-84
2022/10/01 00:37:41;;;;;;;4.80;3.13;;;11.10;99.90;;;;;;5075516;28;20323;-84
2022/10/01 00:40:09;;;;;;;4.40;2.80;;;11.00;99.90;;;;;;5074021;28;20248;-84
2022/10/01 00:42:37;;;;;;;4.93;2.70;;;11.00;1.00;;;;;;5073626;28;20203;-84
2022/10/01 00:45:04;;;;;;;3.87;3.03;;;11.10;99.90;;;;;;5072413;28;20213;-83
2022/10/01 00:47:34;;;;;;;4.33;2.93;;;11.00;1.00;;;;;;5074589;28;20230;-83
2022/10/01 00:50:06;;;;;;;7.83;5.03;;;10.90;99.90;;;;;;5073281;28;20190;-83
2022/10/01 00:52:38;;;;;;;7.47;4.30;;;10.90;1.00;;;;;;5073457;28;20210;-83
2022/10/01 00:55:08;;;;;;;3.30;2.87;;;11.00;1.00;;;;;;5074018;28;20643;-83
2022/10/01 00:57:36;;;;;;;4.00;2.63;;;10.90;1.00;;;;;;5073957;28;20256;-83
2022/10/01 01:00:08;;;;;;;4.53;3.60;;;10.90;1.00;;;;;;5072379;28;20209;-84
2022/10/01 01:02:35;;;;;;;5.40;3.00;;;10.90;60.70;;;;;;5074063;28;20206;-84
2022/10/01 01:05:03;;;;;;;4.50;2.90;;;10.90;1.00;;;;;;5073705;28;20205;-83
2022/10/01 01:07:31;;;;;;;4.97;2.90;;;11.10;1.00;;;;;;5072479;28;20236;-83
2022/10/01 01:10:00;;;;;;;6.40;3.00;;;11.00;71.70;;;;;;5074078;28;20206;-83
2022/10/01 01:12:44;;;;;;;4.97;3.20;;;11.10;1.00;;;;;;5072587;28;20186;-83
2022/10/01 01:15:17;;;;;;;5.17;3.10;;;11.00;99.90;;;;;;5072160;28;20643;-83
2022/10/01 01:17:54;;;;;;;5.43;3.37;;;11.00;1.00;;;;;;5073061;28;20577;-84
2022/10/01 01:20:49;;;;;;;4.30;3.20;;;11.00;1.00;;;;;;5072753;28;20571;-84
2022/10/01 01:23:51;;;;;;;4.80;3.43;;;11.00;99.90;;;;;;5071976;28;20187;-83
2022/10/01 01:26:30;;;;;;;4.53;2.80;;;10.90;45.90;;;;;;5072093;28;20218;-82
2022/10/01 01:29:05;;;;;;;4.67;3.17;;;11.00;1.00;;;;;;5071666;28;20698;-82
2022/10/01 01:31:37;;;;;;;3.67;2.70;;;11.00;1.00;;;;;;5071216;28;20654;-83
2022/10/01 01:34:11;;;;;;;5.83;3.17;;;11.10;1.00;;;;;;5072689;28;20209;-83
2022/10/01 01:36:40;;;;;;;4.67;3.00;;;11.00;1.00;;;;;;5072294;28;20222;-83
2022/10/01 01:39:11;;;;;;;5.33;2.80;;;11.00;1.00;;;;;;5071264;28;20285;-82
2022/10/01 01:41:48;;;;;;;4.63;2.80;;;11.10;1.00;;;;;;5072495;28;20546;-83
2022/10/01 01:44:21;;;;;;;3.97;3.07;;;11.10;1.00;;;;;;5073163;28;20190;-82
2022/10/01 01:46:49;;;;;;;5.57;2.80;;;11.20;1.00;;;;;;5071363;28;20234;-83
2022/10/01 01:49:19;;;;;;;5.90;3.40;;;11.10;1.00;;;;;;5072241;28;20210;-83
2022/10/01 01:51:50;;;;;;;6.40;3.13;;;11.10;92.10;;;;;;5072750;28;20214;-83
2022/10/01 01:54:18;;;;;;;5.80;2.90;;;11.10;1.00;;;;;;5071608;28;20202;-83
2022/10/01 01:56:47;;;;;;;5.03;3.07;;;11.00;1.00;;;;;;5071600;28;20230;-83
2022/10/01 01:59:18;;;;;;;5.30;3.00;;;11.00;99.90;;;;;;5072512;28;20217;-83
2022/10/01 02:01:48;;;;;;;3.00;2.70;;;10.90;1.00;;;;;;5071307;28;20195;-83
2022/10/01 02:04:20;;;;;;;3.93;2.97;;;11.00;1.00;;;;;;5072548;28;20213;-83
2022/10/01 02:07:05;;;;;;;4.23;3.43;;;10.80;99.90;;;;;;5071686;28;20232;-82
2022/10/01 02:09:35;;;;;;;4.20;3.23;;;10.70;1.00;;;;;;5072079;28;20198;-82
2022/10/01 02:12:12;;;;;;;4.93;3.50;;;10.60;99.90;;;;;;5077321;28;20186;-82
2022/10/01 02:14:46;;;;;;;4.43;3.03;;;10.70;94.40;;;;;;5090496;28;20192;-82
2022/10/01 02:17:22;;;;;;;6.23;3.40;;;10.70;1.00;;;;;;5095039;28;20240;-82
2022/10/01 02:19:55;;;;;;;4.87;3.70;;;10.90;99.90;;;;;;5095277;28;20260;-82
2022/10/01 02:22:27;;;;;;;6.27;3.00;;;10.80;99.90;;;;;;5095249;28;20212;-82
2022/10/01 02:24:57;;;;;;;5.40;3.30;;;10.90;23.80;;;;;;5095049;28;20286;-81
2022/10/01 02:27:29;;;;;;;4.80;2.93;;;11.00;1.00;;;;;;5095037;28;20252;-81
2022/10/01 02:29:59;;;;;;;4.00;2.93;;;11.00;1.00;;;;;;5093795;28;20202;-81
2022/10/01 02:32:30;;;;;;;6.17;3.00;;;11.00;1.00;;;;;;5095446;28;20205;-82
2022/10/01 02:34:58;;;;;;;5.40;2.80;;;11.20;1.00;;;;;;5093242;28;20200;-81
2022/10/01 02:37:26;;;;;;;8.80;3.43;;;11.20;99.90;;;;;;5093857;28;20711;-82
2022/10/01 02:39:56;;;;;;;3.20;2.90;;;11.30;99.90;;;;;;5094139;28;20208;-82
2022/10/01 02:42:27;;;;;;;4.77;2.77;;;11.20;97.70;;;;;;5092664;28;20213;-83
2022/10/01 02:44:56;;;;;;;3.93;2.90;;;11.40;1.00;;;;;;5092530;28;20186;-82
2022/10/01 02:47:32;;;;;;;6.30;2.70;;;11.50;99.90;;;;;;5094427;28;20221;-82
2022/10/01 02:50:00;;;;;;;4.47;2.90;;;11.60;1.00;;;;;;5093435;28;20228;-80
2022/10/01 02:52:32;;;;;;;3.43;2.70;;;11.50;99.90;;;;;;5094462;28;20560;-82
2022/10/01 02:55:03;;;;;;;4.10;2.90;;;11.70;1.00;;;;;;5093385;28;20193;-82
2022/10/01 02:57:31;;;;;;;4.90;2.90;;;11.60;1.00;;;;;;5094387;28;20229;-81
2022/10/01 03:00:01;;;;;;;3.47;2.70;;;11.60;1.00;;;;;;5092244;28;20198;-82
2022/10/01 03:02:31;;;;;;;4.67;2.80;;;11.60;1.00;;;;;;5092950;28;20638;-82
2022/10/01 03:04:59;;;;;;;4.40;3.17;;;11.60;1.00;;;;;;5093150;28;20647;-81
2022/10/01 03:07:28;;;;;;;3.33;3.00;;;11.60;1.00;;;;;;5093890;28;20228;-82
2022/10/01 03:09:56;;;;;;;3.63;2.83;;;11.60;1.00;;;;;;5093562;28;20577;-82
2022/10/01 03:12:23;;;;;;;6.33;3.57;;;11.60;1.00;;;;;;5093928;28;20210;-81
2022/10/01 03:14:50;;;;;;;5.57;2.90;;;11.60;99.90;;;;;;5098205;28;20186;-82
2022/10/01 03:17:17;;;;;;;5.57;3.00;;;11.60;30.00;;;;;;5098242;28;20622;-81
2022/10/01 03:19:46;;;;;;;4.90;3.10;;;11.60;1.00;;;;;;5099037;28;20204;-82
2022/10/01 03:22:14;;;;;;;4.67;2.70;;;11.70;1.00;;;;;;5096871;28;20216;-81
2022/10/01 03:24:41;;;;;;;4.17;2.97;;;11.60;1.00;;;;;;5097994;28;20342;-82
2022/10/01 03:27:08;;;;;;;16.53;3.20;;;11.80;55.90;;;;;;5103316;28;20232;-82
2022/10/01 03:29:34;;;;;;;3.73;2.60;;;11.70;1.00;;;;;;5103175;28;20217;-82
2022/10/01 03:32:01;;;;;;;4.80;3.13;;;11.60;1.00;;;;;;5098373;28;20216;-83
2022/10/01 03:34:29;;;;;;;5.77;3.10;;;11.70;1.00;;;;;;5098017;28;20430;-82
2022/10/01 03:36:57;;;;;;;4.70;3.07;;;11.70;1.00;;;;;;5097161;28;20719;-83
2022/10/01 03:39:23;;;;;;;4.17;2.83;;;11.70;37.60;;;;;;5100365;28;20198;-83
2022/10/01 03:41:50;;;;;;;2.90;2.70;;;11.70;1.00;;;;;;5098097;28;20210;-83
2022/10/01 03:44:17;;;;;;;5.50;3.40;;;11.70;1.00;;;;;;5096948;28;20202;-83
2022/10/01 03:46:44;;;;;;;5.03;3.20;;;11.80;1.00;;;;;;5097649;28;20225;-82
2022/10/01 03:49:11;;;;;;;5.43;3.10;;;11.80;1.00;;;;;;5096826;28;20225;-83
2022/10/01 03:51:38;;;;;;;4.77;3.13;;;11.80;1.00;;;;;;5098140;28;20208;-83
2022/10/01 03:54:07;;;;;;;4.70;3.00;;;11.70;16.10;;;;;;5096814;28;20576;-83
2022/10/01 03:56:34;;;;;;;7.50;3.10;;;12.00;1.00;;;;;;5097720;28;20226;-82
2022/10/01 03:59:02;;;;;;;4.43;2.93;;;11.90;1.00;;;;;;5095632;28;20288;-83
2022/10/01 04:01:29;;;;;;;4.20;2.83;;;11.90;1.00;;;;;;5097387;28;20208;-83
2022/10/01 04:03:56;;;;;;;5.17;3.37;;;11.80;1.00;;;;;;5094537;28;20210;-82
2022/10/01 04:06:23;;;;;;;3.43;3.00;;;11.80;18.20;;;;;;5094815;28;20221;-82
2022/10/01 04:08:49;;;;;;;3.60;2.97;;;11.80;1.00;;;;;;5096656;28;20228;-82
2022/10/01 04:11:18;;;;;;;8.80;2.93;;;11.70;31.30;;;;;;5097552;28;20220;-82
2022/10/01 04:13:44;;;;;;;4.37;2.97;;;11.90;1.00;;;;;;5092569;28;20200;-82
2022/10/01 04:16:11;;;;;;;5.67;3.23;;;11.80;1.00;;;;;;5074625;28;20229;-83
2022/10/01 04:18:38;;;;;;;4.27;3.00;;;11.90;1.00;;;;;;5074588;28;20198;-83
2022/10/01 04:21:05;;;;;;;4.13;2.90;;;11.90;1.00;;;;;;5074002;28;20579;-83
2022/10/01 04:23:32;;;;;;;4.03;3.17;;;11.80;99.90;;;;;;5076097;28;20206;-84
2022/10/01 04:26:01;;;;;;;6.70;3.67;;;11.80;99.90;;;;;;5078075;28;20721;-84
2022/10/01 04:28:30;;;;;;;2.90;2.63;;;11.80;99.90;;;;;;5081098;28;20206;-84
2022/10/01 04:33:38;;;;;;;3.90;2.83;;;11.70;1.00;;;;;;5079606;28;20234;-85
2022/10/01 04:36:05;;;;;;;4.57;3.30;;;11.70;99.90;;;;;;5079987;28;20236;-84
2022/10/01 04:38:31;;;;;;;4.90;3.23;;;11.70;1.00;;;;;;5080136;28;20610;-84
2022/10/01 04:40:58;;;;;;;6.00;3.30;;;11.60;1.00;;;;;;5077815;28;20212;-84
2022/10/01 04:43:25;;;;;;;6.20;3.77;;;11.70;1.00;;;;;;5077537;28;20208;-84
2022/10/01 04:45:53;;;;;;;6.10;4.03;;;11.60;88.70;;;;;;5074059;28;20225;-84
2022/10/01 04:48:20;;;;;;;4.43;3.57;;;11.60;1.00;;;;;;5073969;28;20206;-84
2022/10/01 04:50:47;;;;;;;4.07;3.30;;;11.50;99.90;;;;;;5074354;28;20202;-84
2022/10/01 04:53:14;;;;;;;7.77;4.07;;;11.50;1.00;;;;;;5074459;28;20202;-83
2022/10/01 04:55:42;;;;;;;5.47;3.67;;;11.40;1.00;;;;;;5074475;28;20593;-83
2022/10/01 04:58:09;;;;;;;5.47;3.43;;;11.40;99.90;;;;;;5074139;28;20210;-83
2022/10/01 05:00:36;;;;;;;5.43;3.03;;;11.20;99.90;;;;;;5072634;28;20198;-83
2022/10/01 05:03:04;;;;;;;3.77;2.90;;;11.20;99.90;;;;;;5072094;28;20207;-83
2022/10/01 05:05:33;;;;;;;3.27;2.93;;;11.20;99.90;;;;;;5072062;28;20746;-84
2022/10/01 05:08:00;;;;;;;6.53;3.50;;;11.10;99.90;;;;;;5072519;28;20240;-83
2022/10/01 05:10:27;;;;;;;3.37;2.97;;;11.00;99.90;;;;;;5072728;28;20601;-84
2022/10/01 05:12:54;;;;;;;3.70;2.70;;;11.00;99.90;;;;;;5073921;28;20190;-83
2022/10/01 05:15:21;;;;;;;5.13;3.20;;;11.00;99.90;;;;;;5073682;28;20207;-84
2022/10/01 05:17:48;;;;;;;4.20;3.17;;;10.90;99.90;;;;;;5074757;28;20572;-83
2022/10/01 05:20:18;;;;;;;4.50;3.63;;;10.90;99.90;;;;;;5072947;28;20198;-83
2022/10/01 05:22:46;;;;;;;7.17;3.53;;;10.90;99.90;;;;;;5074568;28;20183;-83
2022/10/01 05:25:13;;;;;;;5.03;3.67;;;10.90;99.90;;;;;;5072537;28;20605;-83
2022/10/01 05:27:40;;;;;;;5.20;3.30;;;10.80;99.90;;;;;;5076549;28;20214;-83
2022/10/01 05:30:08;;;;;;;6.20;3.60;;;10.80;99.90;;;;;;5078123;28;20230;-83
2022/10/01 05:32:35;;;;;;;5.03;3.87;;;10.70;99.90;;;;;;5073455;28;20205;-83
2022/10/01 05:35:02;;;;;;;5.47;3.87;;;10.80;99.90;;;;;;5065691;28;20199;-83
2022/10/01 05:37:30;;;;;;;6.37;3.60;;;10.60;99.90;;;;;;5053437;28;20306;-83
2022/10/01 05:39:57;;;;;;;3.80;3.40;;;10.70;99.90;;;;;;5054441;28;20213;-84
2022/10/01 05:42:24;;;;;;;5.07;3.43;;;10.60;99.90;;;;;;5053869;28;20209;-84
2022/10/01 05:44:51;;;;;;;6.77;4.27;;;10.60;99.90;;;;;;5053747;28;20210;-84
2022/10/01 05:47:19;;;;;;;5.63;4.37;;;10.60;99.90;;;;;;5051976;28;20968;-83
2022/10/01 05:49:45;;;;;;;4.80;3.30;;;10.50;99.90;;;;;;5052855;28;20227;-83
2022/10/01 05:52:15;;;;;;;7.50;4.00;;;10.50;99.90;;;;;;5052856;28;20198;-85
2022/10/01 05:54:43;;;;;;;5.93;4.07;;;10.60;99.90;;;;;;5053137;28;20663;-83
2022/10/01 05:57:10;;;;;;;4.77;3.57;;;10.60;99.90;;;;;;5071240;28;20222;-83
2022/10/01 05:59:37;;;;;;;5.67;3.80;;;10.60;99.90;;;;;;5073001;28;20489;-82
2022/10/01 06:02:04;;;;;;;5.47;4.00;;;10.50;99.90;;;;;;5073331;28;20202;-82
2022/10/01 06:04:31;;;;;;;7.47;4.07;;;10.60;99.90;;;;;;5073428;28;20198;-83
2022/10/01 06:06:58;;;;;;;3.97;3.40;;;10.60;99.90;;;;;;5072046;28;20926;-83
2022/10/01 06:09:25;;;;;;;6.43;3.60;;;10.50;99.90;;;;;;5072121;28;20218;-83
2022/10/01 06:11:54;;;;;;;6.53;4.17;;;10.60;99.90;;;;;;5081541;28;20198;-81
2022/10/01 06:14:20;;;;;;;5.10;3.93;;;10.50;99.90;;;;;;5074066;28;20628;-82
2022/10/01 06:16:47;;;;;;;9.17;4.20;;;10.50;99.90;;;;;;5073057;28;20236;-81
2022/10/01 06:19:16;;;;;;;5.37;3.50;;;10.50;99.90;;;;;;5073918;28;20205;-82
2022/10/01 06:21:43;;;;;;;5.43;3.90;;;10.50;99.90;;;;;;5076294;28;20203;-82
2022/10/01 06:24:09;;;;;;;6.53;4.07;;;10.50;99.90;;;;;;5072825;28;20673;-81
2022/10/01 06:26:36;;;;;;;7.77;3.90;;;10.50;99.90;;;;;;5075122;28;20229;-83
2022/10/01 06:29:04;;;;;;;7.33;3.80;;;10.50;99.90;;;;;;5087004;28;20285;-81
2022/10/01 06:31:31;;;;;;;5.07;3.27;;;10.50;99.90;;;;;;5074634;28;20229;-81
2022/10/01 06:33:58;;;;;;;6.17;4.70;;;10.60;99.90;;;;;;5074642;28;20210;-82
2022/10/01 06:36:25;;;;;;;3.63;3.30;;;10.60;99.90;;;;;;5073975;28;20237;-84
2022/10/01 06:38:52;;;;;;;6.43;3.57;;;10.60;99.90;;;;;;5074213;28;20296;-82
2022/10/01 06:41:19;;;;;;;4.13;3.43;;;10.50;99.90;;;;;;5074094;28;20195;-84
2022/10/01 06:43:48;;;;;;;3.50;3.20;;;10.50;99.90;;;;;;5083836;28;20204;-83
2022/10/01 06:46:16;;;;;;;4.80;2.90;;;10.50;99.90;;;;;;5070207;28;20679;-82
2022/10/01 06:48:43;;;;;;;12.37;7.40;;;10.50;99.90;;;;;;5075691;28;20213;-83
2022/10/01 06:51:10;;;;;;;6.10;3.57;;;10.40;99.90;;;;;;5076731;28;20283;-83
2022/10/01 06:53:35;;;;;;;6.37;2.97;;;10.40;99.90;;;;;;5077459;28;20655;-79
2022/10/01 06:56:07;;;;;;;4.33;3.17;;;10.40;99.90;;;;;;5076602;28;20213;-81
2022/10/01 06:58:34;;;;;;;5.07;2.90;;;10.50;99.90;;;;;;5076540;28;20210;-81
2022/10/01 07:01:02;;;;;;;4.70;3.23;;;10.50;99.90;;;;;;5081854;28;20193;-80
2022/10/01 07:03:31;;;;;;;4.07;2.87;;;10.60;99.90;;;;;;5082846;28;20682;-81
2022/10/01 07:06:02;;;;;;;3.63;3.03;;;10.60;99.90;;;;;;5092161;28;20226;-82
2022/10/01 07:08:29;;;;;;;4.37;3.10;;;10.60;99.90;;;;;;5079110;28;20206;-80
2022/10/01 07:11:02;;;;;;;4.23;3.23;;;10.60;99.90;;;;;;5073478;28;20226;-82
2022/10/01 07:13:29;;;;;;;3.50;3.00;;;10.60;99.90;;;;;;5077142;28;20215;-82
2022/10/01 07:15:56;;;;;;;4.10;3.00;;;10.70;99.90;;;;;;5084134;28;20214;-81
2022/10/01 07:18:23;;;;;;;3.63;2.87;;;10.70;99.90;;;;;;5076146;28;20209;-80
2022/10/01 07:20:51;;;;;;;3.27;2.63;;;10.70;99.90;;;;;;5077090;28;20195;-82
2022/10/01 07:23:18;;;;;;;4.10;3.00;;;10.70;99.90;;;;;;5076548;28;20213;-80
2022/10/01 07:25:45;;;;;;;4.33;2.70;;;10.70;99.90;;;;;;5072640;28;20234;-85
2022/10/01 07:28:16;;;;;;;3.80;2.90;;;10.70;99.90;;;;;;5075492;28;20646;-83
2022/10/01 07:30:46;;;;;;;2.90;2.50;;;10.70;99.90;;;;;;5074955;28;20250;-84
2022/10/01 07:33:13;;;;;;;3.53;2.50;;;10.70;99.90;;;;;;5075703;28;20199;-83
2022/10/01 07:35:40;;;;;;;3.33;2.50;;;10.70;99.90;;;;;;5075165;28;20226;-85
2022/10/01 07:38:09;;;;;;;2.50;2.30;;;10.70;99.90;;;;;;5072713;28;20609;-83
2022/10/01 07:40:35;;;;;;;2.83;2.63;;;10.70;99.90;;;;;;5074433;28;20573;-84
2022/10/01 07:43:02;;;;;;;2.40;2.20;;;10.70;99.90;;;;;;5071988;28;20198;-83
2022/10/01 07:45:29;;;;;;;2.33;2.13;;;10.70;99.90;;;;;;5083985;28;20212;-83
2022/10/01 07:47:57;;;;;;;2.47;2.20;;;10.70;99.90;;;;;;5073092;28;20217;-82
2022/10/01 07:50:25;;;;;;;2.67;2.40;;;10.80;99.90;;;;;;5070947;28;20222;-83
2022/10/01 07:52:52;;;;;;;4.53;2.20;;;10.70;99.90;;;;;;5074115;28;20260;-82
2022/10/01 07:55:22;;;;;;;1.90;1.80;;;10.90;99.90;;;;;;5064880;28;20879;-84
2022/10/01 07:57:52;;;;;;;2.17;1.90;;;10.80;99.90;;;;;;5074838;28;20670;-83
2022/10/01 08:00:20;;;;;;;2.20;2.00;;;10.80;99.90;;;;;;5073541;28;20206;-83
2022/10/01 08:02:48;;;;;;;2.77;2.10;;;10.80;99.90;;;;;;5066452;28;20672;-83
2022/10/01 08:05:18;;;;;;;2.90;2.30;;;10.80;99.90;;;;;;5074864;28;20202;-83
2022/10/01 08:07:46;;;;;;;3.30;2.03;;;10.90;99.90;;;;;;5073052;28;20265;-83
2022/10/01 08:10:13;;;;;;;2.10;1.90;;;10.90;99.90;;;;;;5061434;28;20231;-82
2022/10/01 08:12:42;;;;;;;2.03;1.83;;;11.00;99.90;;;;;;5048417;28;20211;-83
2022/10/01 08:15:10;;;;;;;1.97;1.77;;;11.00;99.90;;;;;;5046908;28;20215;-83
2022/10/01 08:17:37;;;;;;;2.40;1.70;;;11.00;99.90;;;;;;5061393;28;20226;-83
2022/10/01 08:20:06;;;;;;;1.90;1.80;;;11.10;99.90;;;;;;5082889;28;20198;-82
2022/10/01 08:22:33;;;;;;;2.13;1.80;;;11.10;99.90;;;;;;5073208;28;20246;-83
2022/10/01 08:25:00;;;;;;;2.17;1.67;;;11.20;99.90;;;;;;5065581;28;20214;-83
2022/10/01 08:27:28;;;;;;;1.30;1.30;;;11.10;99.90;;;;;;5065744;28;20218;-82
2022/10/01 08:29:56;;;;;;;1.90;1.70;;;11.20;99.90;;;;;;5065682;28;20596;-83
2022/10/01 08:32:26;;;;;;;2.33;1.40;;;11.30;99.90;;;;;;5065915;28;20217;-85
2022/10/01 08:34:56;;;;;;;1.60;1.50;;;11.30;99.90;;;;;;5067443;28;20671;-84
2022/10/01 08:37:26;;;;;;;2.17;1.57;;;11.50;99.90;;;;;;5065138;28;20249;-84
2022/10/01 08:39:54;;;;;;;1.30;1.20;;;11.40;99.90;;;;;;5065191;28;20195;-83
2022/10/01 08:42:43;;;;;;;2.60;1.73;;;11.30;99.90;;;;;;5067292;28;20232;-83
2022/10/01 08:45:16;;;;;;;1.97;1.20;;;11.40;99.90;;;;;;5065876;28;20216;-82
2022/10/01 08:47:48;;;;;;;1.67;1.10;;;11.40;99.90;;;;;;5065789;28;20217;-84
2022/10/01 08:50:28;;;;;;;3.33;1.43;;;11.50;99.90;;;;;;5066905;28;21116;-84
2022/10/01 08:52:59;;;;;;;1.40;1.30;;;11.50;99.90;;;;;;5066616;28;20208;-83
2022/10/01 08:55:30;;;;;;;0.97;0.97;;;11.60;99.90;;;;;;5070539;28;20198;-83
2022/10/01 08:58:01;;;;;;;1.17;1.07;;;11.60;99.90;;;;;;5059626;28;20210;-82
2022/10/01 09:00:31;;;;;;;1.07;0.97;;;11.50;99.90;;;;;;5060522;28;20198;-83
2022/10/01 09:03:03;;;;;;;1.50;1.40;;;11.50;99.90;;;;;;5058369;28;20202;-82
2022/10/01 09:05:40;;;;;;;3.60;1.13;;;11.50;99.90;;;;;;5074461;28;20225;-82
2022/10/01 09:08:20;;;;;;;1.37;1.23;;;11.50;99.90;;;;;;5066283;28;20224;-83
2022/10/01 09:10:52;;;;;;;1.37;1.27;;;11.50;99.90;;;;;;5059613;28;20222;-82
2022/10/01 09:13:42;;;;;;;1.53;0.97;;;11.60;99.90;;;;;;5074026;28;20561;-84
2022/10/01 09:16:18;;;;;;;1.20;1.10;;;11.60;99.90;;;;;;5072032;28;20228;-84
2022/10/01 09:18:54;;;;;;;1.40;1.30;;;11.60;99.90;;;;;;5073684;28;20198;-83
2022/10/01 09:21:41;;;;;;;1.00;1.00;;;11.60;99.90;;;;;;5073144;28;20194;-83
2022/10/01 09:24:13;;;;;;;1.93;1.10;;;11.70;99.90;;;;;;5078104;28;20599;-83
2022/10/01 09:26:44;;;;;;;1.53;1.43;;;11.70;99.90;;;;;;5074609;28;20273;-84
2022/10/01 09:29:16;;;;;;;0.90;0.90;;;11.80;99.90;;;;;;5068328;28;20582;-82
2022/10/01 09:31:47;;;;;;;1.10;1.03;;;11.70;99.90;;;;;;5073149;28;20214;-84
2022/10/01 09:34:18;;;;;;;1.10;0.90;;;11.70;99.90;;;;;;5075161;28;20258;-82
2022/10/01 09:36:59;;;;;;;3.33;1.23;;;11.90;99.90;;;;;;5073393;28;20220;-83
2022/10/01 09:39:31;;;;;;;1.67;1.20;;;11.80;99.90;;;;;;5073492;28;20202;-84
2022/10/01 09:41:58;;;;;;;0.77;0.77;;;12.10;99.90;;;;;;5073965;28;20199;-83
2022/10/01 09:44:28;;;;;;;2.50;1.30;;;12.00;99.90;;;;;;5072928;28;20209;-82
2022/10/01 09:46:57;;;;;;;0.90;0.90;;;12.10;99.90;;;;;;5072314;28;20222;-83
2022/10/01 09:49:29;;;;;;;2.00;1.40;;;12.00;99.90;;;;;;5074932;28;20210;-83
2022/10/01 09:52:01;;;;;;;2.00;1.10;;;12.00;99.90;;;;;;5074291;28;20210;-83
2022/10/01 09:54:32;;;;;;;1.10;1.10;;;12.00;99.90;;;;;;5074052;28;20866;-83
2022/10/01 09:57:06;;;;;;;1.10;1.00;;;12.00;99.90;;;;;;5074407;28;20241;-83
2022/10/01 09:59:40;;;;;;;3.33;1.30;;;12.10;99.90;;;;;;5074504;28;20190;-83
2022/10/01 10:02:19;;;;;;;0.93;0.93;;;12.10;99.90;;;;;;5057470;28;20187;-82
2022/10/01 10:04:46;;;;;;;1.00;1.00;;;12.10;99.90;;;;;;5057147;28;20544;-83
2022/10/01 10:07:18;;;;;;;1.63;1.23;;;12.10;99.90;;;;;;5073051;28;20226;-83
2022/10/01 10:09:46;;;;;;;1.23;1.20;;;12.00;99.90;;;;;;5073224;28;20186;-83
2022/10/01 10:12:30;;;;;;;2.00;1.20;;;12.00;99.90;;;;;;5073967;28;20590;-83
2022/10/01 10:15:05;;;;;;;2.10;1.23;;;12.00;99.90;;;;;;5072310;28;20212;-81
2022/10/01 10:17:36;;;;;;;2.80;1.33;;;12.10;99.90;;;;;;5073823;28;20233;-83
2022/10/01 10:20:10;;;;;;;2.80;1.30;;;12.10;99.90;;;;;;5072774;28;20210;-83
2022/10/01 10:22:37;;;;;;;1.40;1.30;;;12.20;99.90;;;;;;5073228;28;20256;-83
2022/10/01 10:25:15;;;;;;;3.43;1.63;;;12.30;99.90;;;;;;5074349;28;20199;-82
2022/10/01 10:27:53;;;;;;;0.93;0.93;;;12.30;99.90;;;;;;5074042;28;20198;-81
2022/10/01 10:30:23;;;;;;;1.33;1.23;;;12.50;99.90;;;;;;5071368;28;20233;-82
2022/10/01 10:32:52;;;;;;;1.77;1.60;;;12.60;99.90;;;;;;5074397;28;20187;-84
2022/10/01 10:35:23;;;;;;;1.00;1.00;;;12.70;99.90;;;;;;5053749;28;20281;-82
2022/10/01 10:37:53;;;;;;;1.50;1.40;;;12.90;99.90;;;;;;5054012;28;20203;-83
2022/10/01 10:40:22;;;;;;;1.37;1.27;;;12.80;99.90;;;;;;5053368;28;20203;-81
2022/10/01 10:42:51;;;;;;;1.40;1.20;;;13.00;99.90;;;;;;5052789;28;20205;-83
2022/10/01 10:45:20;;;;;;;1.43;1.33;;;13.00;99.90;;;;;;5059777;28;20198;-81
2022/10/01 10:47:52;;;;;;;1.10;1.10;;;13.10;99.90;;;;;;5072675;28;20202;-81
2022/10/01 10:50:29;;;;;;;2.40;1.27;;;13.00;99.90;;;;;;5073198;28;20537;-83
2022/10/01 10:52:56;;;;;;;1.17;1.17;;;13.20;99.90;;;;;;5059034;28;20194;-82
2022/10/01 10:55:26;;;;;;;1.47;1.37;;;13.80;99.90;;;;;;5072645;28;20210;-82
2022/10/01 10:57:53;;;;;;;1.00;1.00;;;14.30;99.90;;;;;;5072968;28;20220;-82
2022/10/01 11:00:22;;;;;;;1.87;1.40;;;14.10;99.90;;;;;;5072479;28;20723;-82
2022/10/01 11:02:55;;;;;;;1.67;1.57;;;14.40;99.90;;;;;;5072901;28;20336;-82
2022/10/01 11:05:26;;;;;;;1.53;1.40;;;14.70;99.90;;;;;;5072809;28;20294;-82
2022/10/01 11:07:55;;;;;;;2.10;1.33;;;14.80;99.90;;;;;;5052306;28;20191;-83
2022/10/01 11:10:30;;;;;;;1.70;1.60;;;14.50;99.90;;;;;;5051949;28;20261;-82
2022/10/01 11:13:18;;;;;;;2.07;1.20;;;14.40;99.90;;;;;;5052475;28;20191;-82
2022/10/01 11:16:01;;;;;;;1.60;1.50;;;14.50;99.90;;;;;;5052467;28;20265;-82
2022/10/01 11:18:54;;;;;;;1.50;1.37;;;14.40;99.90;;;;;;5054235;28;20628;-83
2022/10/01 11:21:37;;;;;;;2.07;1.37;;;14.10;99.90;;;;;;5073362;28;20193;-82
2022/10/01 11:24:18;;;;;;;2.63;1.47;;;14.10;99.90;;;;;;5078884;28;20593;-82
2022/10/01 11:26:54;;;;;;;1.50;1.40;;;14.00;99.90;;;;;;5072241;28;20222;-80
2022/10/01 11:29:33;;;;;;;2.50;1.17;;;14.10;99.90;;;;;;5077451;28;20693;-80
2022/10/01 11:32:06;;;;;;;2.10;1.00;;;14.10;99.90;;;;;;5071142;28;20222;-81
2022/10/01 11:34:51;;;;;;;1.60;1.50;;;14.10;99.90;;;;;;5073682;28;20222;-80
2022/10/01 11:37:32;;;;;;;1.33;1.23;;;14.10;99.90;;;;;;5075102;28;20222;-80
2022/10/01 11:40:12;;;;;;;1.50;1.40;;;14.30;99.90;;;;;;5054550;28;20187;-80
2022/10/01 11:42:41;;;;;;;2.20;1.60;;;14.50;99.90;;;;;;5075713;28;20233;-79
2022/10/01 11:45:16;;;;;;;1.50;1.40;;;14.50;99.90;;;;;;5074519;28;20203;-81
2022/10/01 11:47:48;;;;;;;2.80;1.50;;;14.50;99.90;;;;;;5074069;28;20205;-81
2022/10/01 11:50:20;;;;;;;3.30;2.10;;;14.60;99.90;;;;;;5074640;28;20549;-81
2022/10/01 11:52:57;;;;;;;2.87;2.27;;;14.90;99.90;;;;;;5085327;28;20245;-80
2022/10/01 12:01:10;;;;;;;2.60;2.40;;;15.20;99.90;;;;;;5062282;28;20190;-81
2022/10/01 12:03:49;;;;;;;3.20;2.90;;;15.70;99.90;;;;;;5064732;28;20228;-81
2022/10/01 12:06:20;;;;;;;3.28;2.45;;;16.00;99.90;;;;;;5075840;28;20272;-82
2022/10/01 12:08:53;;;;;;;4.65;2.78;;;15.90;99.90;;;;;;5074757;28;20206;-81
2022/10/01 12:11:25;;;;;;;3.58;2.90;;;16.10;99.90;;;;;;5090682;28;20247;-82
2022/10/01 12:13:59;;;;;;;4.35;3.20;;;16.40;99.90;;;;;;5083376;28;20597;-82
2022/10/01 12:16:36;;;;;;;5.53;2.92;;;16.20;99.90;;;;;;5075090;28;20230;-82
2022/10/01 12:19:10;;;;;;;5.68;3.60;;;15.90;99.90;;;;;;5075331;28;20206;-82
2022/10/01 12:21:43;;;;;;;4.18;3.10;;;15.90;99.90;;;;;;5075048;28;20194;-81
2022/10/01 12:24:13;;;;;;;4.47;3.00;;;16.10;99.90;;;;;;5075845;28;20220;-82
2022/10/01 12:26:48;;;;;;;4.90;3.30;;;16.70;99.90;;;;;;5075318;28;20230;-81
2022/10/01 12:29:18;;;;;;;3.65;2.90;;;16.50;5.80;;;;;;5074891;28;20740;-82
2022/10/01 12:31:54;;;;;;;5.85;3.85;;;16.30;99.90;;;;;;5069687;28;20222;-82
2022/10/01 12:34:28;;;;;;;4.15;3.20;;;16.40;99.90;;;;;;5068846;28;20194;-81
2022/10/01 12:37:09;;;;;;;3.10;2.80;;;16.50;25.70;;;;;;5069060;28;20230;-81
2022/10/01 12:39:48;;;;;;;4.68;3.15;;;16.70;1.00;;;;;;5078567;28;20202;-82
2022/10/01 12:42:44;;;;;;;4.00;3.45;;;16.70;1.00;;;;;;5080461;28;20207;-82
2022/10/01 12:45:21;;;;;;;5.45;3.85;;;16.30;1.00;;;;;;5077533;28;20210;-82
2022/10/01 12:47:54;;;;;;;3.92;3.50;;;16.20;99.90;;;;;;5079000;28;20964;-81
2022/10/01 12:50:30;;;;;;;5.85;4.07;;;16.10;99.90;;;;;;5076235;28;20428;-82
2022/10/01 12:53:13;;;;;;;6.30;4.82;;;16.00;99.90;;;;;;5073473;28;20218;-81
2022/10/01 12:55:54;;;;;;;7.15;4.10;;;16.20;99.90;;;;;;5072565;28;20246;-81
2022/10/01 12:58:34;;;;;;;4.93;4.30;;;16.50;1.00;;;;;;5079381;28;20198;-81
2022/10/01 13:01:08;;;;;;;6.68;4.05;;;16.70;1.00;;;;;;5069489;28;20210;-80
2022/10/01 13:04:00;;;;;;;9.60;4.45;;;16.70;1.00;;;;;;5073753;28;20202;-82
2022/10/01 13:06:36;;;;;;;4.53;3.30;;;17.30;1.00;;;;;;5074594;28;20598;-82
2022/10/01 13:09:16;;;;;;;8.20;3.50;;;17.50;1.00;;;;;;5075737;28;20182;-83
2022/10/01 13:11:57;;;;;;;5.30;3.50;;;17.90;1.00;;;;;;5076776;28;20221;-81
2022/10/01 13:14:25;;;;;;;4.70;3.25;;;17.50;99.90;;;;;;5074531;28;20650;-81
2022/10/01 13:17:01;;;;;;;3.55;3.15;;;17.20;1.00;;;;;;5075826;28;20230;-81